createdAt,value
2023-01-20T00:00:03.768Z,1.56
2023-01-20T00:05:25.499Z,1.71
2023-01-20T00:10:47.233Z,1.77
2023-01-20T00:16:10.783Z,1.68
2023-01-20T00:21:32.744Z,1.67
2023-01-20T00:26:54.485Z,1.67
2023-01-20T00:32:16.190Z,1.83
2023-01-20T00:37:38.465Z,1.95
2023-01-20T00:43:00.192Z,1.83
2023-01-20T00:48:22.022Z,1.74
2023-01-20T00:53:43.777Z,1.73
2023-01-20T00:59:05.492Z,1.83
2023-01-20T01:04:27.285Z,1.80
2023-01-20T01:09:49.023Z,1.78
2023-01-20T01:15:11.344Z,1.65
2023-01-20T01:20:33.231Z,1.69
2023-01-20T01:25:54.962Z,1.55
2023-01-20T01:31:18.895Z,1.60
2023-01-20T01:36:40.695Z,1.79
2023-01-20T01:42:02.463Z,1.85
2023-01-20T01:47:24.467Z,1.70
2023-01-20T01:52:50.360Z,1.58
2023-01-20T01:58:15.608Z,1.47
2023-01-20T02:04:09.516Z,1.55
2023-01-20T02:09:31.666Z,1.55
2023-01-20T02:14:56.533Z,1.76
2023-01-20T02:20:57.609Z,1.80
2023-01-20T02:26:31.127Z,1.76
2023-01-20T02:32:21.361Z,1.72
2023-01-20T02:37:52.012Z,1.56
2023-01-20T02:43:28.946Z,1.73
2023-01-20T02:49:15.002Z,1.54
2023-01-20T02:54:40.002Z,1.52
2023-01-20T03:00:07.760Z,1.58
2023-01-20T03:05:33.154Z,1.71
2023-01-20T03:10:59.266Z,1.61
2023-01-20T03:16:23.689Z,1.62
2023-01-20T03:21:45.717Z,1.52
2023-01-20T03:27:07.790Z,1.65
2023-01-20T03:32:29.921Z,1.52
2023-01-20T03:37:52.078Z,1.61
2023-01-20T03:43:38.718Z,1.73
2023-01-20T03:49:35.939Z,1.70
2023-01-20T03:55:07.215Z,1.61
2023-01-20T04:00:32.701Z,1.63
2023-01-20T04:05:58.217Z,1.39
2023-01-20T04:11:20.487Z,1.43
2023-01-20T04:16:43.268Z,1.61
2023-01-20T04:22:12.401Z,1.78
2023-01-20T04:27:34.188Z,1.60
2023-01-20T04:32:55.901Z,1.46
2023-01-20T04:38:17.612Z,1.26
2023-01-20T04:43:43.874Z,1.17
2023-01-20T04:49:05.652Z,1.47
2023-01-20T04:54:27.415Z,1.46
2023-01-20T04:59:49.918Z,1.50
2023-01-20T05:05:11.652Z,1.57
2023-01-20T05:10:33.730Z,1.50
2023-01-20T05:15:55.634Z,1.71
2023-01-20T05:21:17.432Z,1.74
2023-01-20T05:26:39.161Z,1.79
2023-01-20T05:32:00.900Z,1.60
2023-01-20T05:37:22.633Z,1.57
2023-01-20T05:42:44.373Z,1.60
2023-01-20T05:48:06.406Z,1.45
2023-01-20T05:53:28.110Z,1.53
2023-01-20T05:58:54.125Z,1.34
2023-01-20T06:04:15.828Z,1.29
2023-01-20T06:09:37.602Z,1.23
2023-01-20T06:14:59.327Z,1.40
2023-01-20T06:20:21.122Z,1.45
2023-01-20T06:25:43.925Z,1.50
2023-01-20T06:31:11.754Z,1.51
2023-01-20T06:36:33.530Z,1.31
2023-01-20T06:41:59.570Z,1.20
2023-01-20T06:47:21.304Z,1.13
2023-01-20T06:52:43.085Z,1.29
2023-01-20T06:58:04.832Z,1.31
2023-01-20T07:03:26.565Z,1.37
2023-01-20T07:08:48.382Z,1.40
2023-01-20T07:14:10.396Z,1.51
2023-01-20T07:19:32.108Z,1.65
2023-01-20T07:24:53.842Z,1.68
2023-01-20T07:30:15.951Z,1.69
2023-01-20T07:35:37.659Z,1.68
2023-01-20T07:41:18.211Z,1.56
2023-01-20T07:46:39.899Z,1.79
2023-01-20T07:52:01.649Z,1.76
2023-01-20T07:57:23.438Z,1.75
2023-01-20T08:02:45.198Z,1.90
2023-01-20T08:08:06.914Z,1.92
2023-01-20T08:13:29.274Z,2.04
2023-01-20T08:18:54.593Z,1.85
2023-01-20T08:24:16.332Z,1.83
2023-01-20T08:29:38.099Z,1.84
2023-01-20T08:34:59.990Z,2.04
2023-01-20T08:40:21.820Z,2.15
2023-01-20T08:45:43.783Z,2.30
2023-01-20T08:51:14.336Z,2.30
2023-01-20T08:56:36.798Z,2.15
2023-01-20T09:01:58.554Z,2.11
2023-01-20T09:07:20.565Z,2.09
2023-01-20T09:12:42.334Z,2.05
2023-01-20T09:18:04.152Z,2.07
2023-01-20T09:23:26.676Z,2.08
2023-01-20T09:28:48.398Z,2.01
2023-01-20T09:34:11.871Z,2.18
2023-01-20T09:39:53.299Z,2.36
2023-01-20T09:45:24.542Z,2.37
2023-01-20T09:51:15.309Z,2.26
2023-01-20T09:56:43.841Z,2.47
2023-01-20T10:02:17.071Z,2.52
2023-01-20T10:07:50.642Z,2.30
2023-01-20T10:13:56.388Z,2.41
2023-01-20T10:19:27.096Z,2.28
2023-01-20T10:25:13.858Z,2.52
2023-01-20T10:30:37.266Z,2.58
2023-01-20T10:36:00.383Z,2.54
2023-01-20T10:41:26.943Z,2.26
2023-01-20T10:47:14.862Z,2.25
2023-01-20T10:52:56.126Z,2.15
2023-01-20T10:58:31.282Z,2.18
2023-01-20T11:03:53.156Z,2.30
2023-01-20T11:09:27.442Z,2.59
2023-01-20T11:14:49.600Z,2.70
2023-01-20T11:20:19.589Z,2.87
2023-01-20T11:25:41.321Z,3.01
2023-01-20T11:31:04.462Z,3.19
2023-01-20T11:36:27.605Z,3.13
2023-01-20T11:41:49.323Z,3.23
2023-01-20T11:47:26.141Z,3.29
2023-01-20T11:52:47.922Z,3.36
2023-01-20T11:58:25.888Z,3.41
2023-01-20T12:03:53.557Z,3.29
2023-01-20T12:09:18.255Z,3.35
2023-01-20T12:15:02.366Z,3.21
2023-01-20T12:20:42.322Z,3.12
2023-01-20T12:26:13.087Z,3.13
2023-01-20T12:31:34.970Z,3.25
2023-01-20T12:37:16.813Z,3.37
2023-01-20T12:43:02.051Z,3.40
2023-01-20T12:48:48.637Z,3.43
2023-01-20T12:54:42.960Z,3.46
2023-01-20T13:00:23.203Z,3.46
2023-01-20T13:06:12.949Z,3.48
2023-01-20T13:11:54.085Z,3.40
2023-01-20T13:17:30.086Z,3.38
2023-01-20T13:22:54.618Z,3.42
2023-01-20T13:28:19.409Z,3.52
2023-01-20T13:33:42.240Z,3.32
2023-01-20T13:39:40.431Z,3.36
2023-01-20T13:45:14.809Z,3.35
2023-01-20T13:50:41.680Z,3.39
2023-01-20T13:56:03.503Z,3.40
2023-01-20T14:01:26.809Z,3.38
2023-01-20T14:06:51.202Z,3.55
2023-01-20T14:12:13.000Z,3.57
2023-01-20T14:17:34.719Z,3.67
2023-01-20T14:23:23.280Z,3.61
2023-01-20T14:28:48.609Z,3.42
2023-01-20T14:34:25.706Z,3.37
2023-01-20T14:39:49.981Z,3.53
2023-01-20T14:45:23.536Z,3.66
2023-01-20T14:50:52.387Z,3.74
2023-01-20T14:56:19.430Z,3.57
2023-01-20T15:01:41.239Z,3.42
2023-01-20T15:07:03.147Z,3.57
2023-01-20T15:12:47.053Z,3.84
2023-01-20T15:18:11.810Z,3.61
2023-01-20T15:23:39.272Z,3.37
2023-01-20T15:29:01.091Z,3.22
2023-01-20T15:34:23.541Z,3.15
2023-01-20T15:39:45.901Z,3.11
2023-01-20T15:45:08.586Z,3.08
2023-01-20T15:50:31.534Z,3.02
2023-01-20T15:55:53.430Z,2.95
2023-01-20T16:01:17.926Z,2.94
2023-01-20T16:06:39.828Z,2.91
2023-01-20T16:12:01.718Z,2.63
2023-01-20T16:17:25.276Z,2.51
2023-01-20T16:22:47.067Z,2.46
2023-01-20T16:28:18.567Z,2.29
2023-01-20T16:33:40.413Z,2.28
2023-01-20T16:39:02.115Z,2.32
2023-01-20T16:44:23.833Z,2.40
2023-01-20T16:49:45.690Z,2.07
2023-01-20T16:55:07.780Z,2.01
2023-01-20T17:00:29.475Z,2.22
2023-01-20T17:05:51.207Z,2.04
2023-01-20T17:11:20.401Z,2.11
2023-01-20T17:16:42.239Z,2.15
2023-01-20T17:22:03.997Z,2.05
2023-01-20T17:27:25.738Z,2.06
2023-01-20T17:32:48.438Z,1.97
2023-01-20T17:38:10.304Z,2.00
2023-01-20T17:43:33.538Z,2.02
2023-01-20T17:48:59.891Z,1.76
2023-01-20T17:54:21.587Z,1.73
2023-01-20T17:59:43.381Z,1.64
2023-01-20T18:05:05.504Z,1.59
2023-01-20T18:10:27.748Z,1.63
2023-01-20T18:15:49.655Z,1.52
2023-01-20T18:21:19.459Z,1.47
2023-01-20T18:26:44.932Z,1.67
2023-01-20T18:32:06.759Z,1.76
2023-01-20T18:37:28.655Z,1.68
2023-01-20T18:42:50.405Z,1.64
2023-01-20T18:48:12.115Z,1.47
2023-01-20T18:53:34.008Z,1.42
2023-01-20T18:58:56.125Z,1.53
2023-01-20T19:04:18.094Z,1.57
2023-01-20T19:09:39.902Z,1.59
2023-01-20T19:15:01.670Z,1.31
2023-01-20T19:20:23.496Z,1.30
2023-01-20T19:25:45.249Z,1.15
2023-01-20T19:31:08.790Z,1.12
2023-01-20T19:36:31.390Z,1.10
2023-01-20T19:41:53.604Z,1.25
2023-01-20T19:47:15.391Z,1.29
2023-01-20T19:52:37.143Z,1.19
2023-01-20T19:58:00.927Z,1.22
2023-01-20T20:03:22.695Z,0.94
2023-01-20T20:08:44.540Z,1.02
2023-01-20T20:14:08.129Z,1.16
2023-01-20T20:19:30.013Z,1.14
2023-01-20T20:24:52.852Z,1.18
2023-01-20T20:30:15.045Z,1.15
2023-01-20T20:35:37.686Z,1.24
2023-01-20T20:40:59.739Z,1.23
2023-01-20T20:46:21.748Z,1.25
2023-01-20T20:51:43.856Z,1.15
2023-01-20T20:57:07.500Z,1.11
2023-01-20T21:02:29.301Z,1.15
2023-01-20T21:07:51.263Z,1.15
2023-01-20T21:13:13.036Z,1.27
2023-01-20T21:18:36.172Z,1.27
2023-01-20T21:23:59.656Z,1.14
2023-01-20T21:29:21.426Z,1.05
2023-01-20T21:34:43.195Z,1.05
2023-01-20T21:40:05.854Z,1.20
2023-01-20T21:45:27.554Z,1.24
2023-01-20T21:51:07.950Z,1.35
2023-01-20T21:56:29.679Z,1.41
2023-01-20T22:01:51.709Z,1.39
2023-01-20T22:07:15.533Z,1.43
2023-01-20T22:12:37.383Z,1.33
2023-01-20T22:17:59.319Z,1.33
2023-01-20T22:23:21.056Z,1.35
2023-01-20T22:28:43.173Z,1.29
2023-01-20T22:34:06.295Z,1.27
2023-01-20T22:39:28.327Z,1.26
2023-01-20T22:44:50.108Z,1.36
2023-01-20T22:50:11.981Z,1.36
2023-01-20T22:55:33.702Z,1.15
2023-01-20T23:00:55.479Z,0.97
2023-01-20T23:06:17.997Z,0.94
2023-01-20T23:11:40.518Z,1.09
2023-01-20T23:17:02.220Z,0.91
2023-01-20T23:22:24.207Z,0.67
2023-01-20T23:27:45.971Z,0.92
2023-01-20T23:33:08.575Z,0.90
2023-01-20T23:38:30.856Z,0.82
2023-01-20T23:43:52.750Z,0.83
2023-01-20T23:49:14.569Z,0.88
2023-01-20T23:54:36.293Z,0.45
2023-01-20T23:59:58.040Z,0.69
